Tiempo atmosférico en la estación meteorológica de Burgo de Osma, Soria (932 m.)



Fecha
DESCASC
Temp. máxima en grados centígrados (hora)
DESCASC
Temp. mínima en grados centígrados (hora)
DESCASC
Temp. media en grados centígrados
DESCASC
Racha de viento máxima en m/sg (hora)
DESCASC
Velocidad máxima media en intervalos de 10 minutos(hora)
DESCASC
Precipitaciones diarias en mm
DESCASC
Precipitaciones de 00:00 a 06:00 en mm
DESCASC
Precipitaciones de 06:00 a 12:00 en mm
DESCASC
Precipitaciones de 12:00 a 18:00 en mm
DESCASC
Precipitaciones de 18:00 a 24:00 en mm
DESCASC
11-12-2019 5.5 (16:30) -0.5 (01:20) 2.5 12.22 (17:50) 8.06 (18:00) 3.8 0 3.8 0 0
08-12-2019 6.8 (23:10) -2.8 (-00:0) 2 6.39 (14:10) 4.44 (21:50) 3 0 0 2.8 0.2
07-12-2019 11.7 (15:40) -2.8 (-00:0) 4.4 5.28 (15:00) 3.89 (16:30) 0.2 0 0.2 0 0
06-12-2019 14.4 (16:10) -1 (-00:0) 6.7 6.11 (13:10) 4.17 (13:10) 0 0 0 0 0
05-12-2019 11.8 (15:40) 1.4 (00:00) 6.6 10 (14:20) 7.22 (14:20) 0 0 0 0 0
04-12-2019 11.6 (16:00) -0.5 (00:40) 5.6 5.28 (16:10) 3.89 (16:10) 0.2 0.2 0 0 0
03-12-2019 6.8 (14:00) -5.9 (-00:0) 0.5 8.33 (14:10) 5.28 (15:20) 0.2 0 0.2 0 0
02-12-2019 10.4 (14:00) -2.5 (-00:0) 3.9 11.67 (14:30) 8.61 (14:50) 0 0 0 0 0
01-12-2019 10.2 (12:30) 1.5 (00:00) 5.8 5.56 (00:30) 3.89 (00:20) 0 0 0 0 0
30-11-2019 13.9 (13:10) 4.2 (00:00) 9 14.72 (16:50) 9.44 (16:50) 17 3.2 0.2 7.4 6.2
29-11-2019 13.6 (15:00) 7.3 (00:00) 10.5 14.17 (00:40) 9.72 (00:40) 0.6 0.2 0.2 0.2 0
28-11-2019 12 (13:00) 7.6 (04:00) 9.8 13.89 (14:00) 10.28 (14:00) 2.2 1.2 0 0 1
27-11-2019 10.8 (00:00) 6.9 (00:00) 8.9 16.11 (00:20) 11.39 (00:10) 2.2 1.8 0 0.2 0.2
26-11-2019 14.4 (15:50) 7.2 (00:00) 10.8 17.78 (23:30) 12.78 (23:30) 0.8 0 0.6 0.2 0
25-11-2019 12.2 (15:00) 5.4 (00:00) 8.8 14.17 (04:40) 9.72 (04:40) 4.6 4.2 0.2 0.2 0
24-11-2019 7.2 (15:50) 2.7 (00:00) 4.9 9.72 (00:20) 7.22 (00:10) 1 0 0 0 1
23-11-2019 8.4 (16:00) 3.5 (00:00) 5.9 19.72 (03:50) 13.89 (04:20) 3.6 3.6 0 0 0
22-11-2019 11.8 (16:30) 1 (00:00) 6.4 17.5 (17:50) 9.72 (23:20) 12.4 0.4 1 7.6 3.4
21-11-2019 8.7 (13:40) 1.9 (00:00) 5.3 10.83 (14:30) 5.83 (14:30) 5 0 4.2 0.8 0
20-11-2019 12.2 (14:20) -3.5 (05:20) 4.3 6.67 (16:20) 4.17 (16:30) 2.4 0 0 0.4 2
19-11-2019 8.1 (14:40) -3.1 (-00:0) 2.5 7.22 (15:00) 5.56 (00:20) 0 0 0 0 0
18-11-2019 7.1 (13:30) 0 (00:00) 3.5 12.5 (12:50) 9.17 (12:30) 0.2 0 0.2 0 0
17-11-2019 6.9 (17:20) 0.1 (00:00) 3.5 11.39 (15:00) 7.22 (15:00) 7.6 0 0.8 6.6 0.2
16-11-2019 5.1 (15:10) -0.2 (00:00) 2.4 11.94 (15:10) 8.33 (15:10) 0 0 0 0 0
15-11-2019 5.4 (13:50) 0.4 (00:00) 2.9 13.06 (06:50) 10 (10:10) 10.4 0.2 0.6 2.2 7.4

Gráficas

Temp. máximas Temp. mínimas Temp. medias Precipitaciones Rachas de viento máximas Velocidades máximas media en intervalos de 10 minutos

Datos horarios

Fecha y hora oficial Temperatura (ºC) Velocidad del viento (km/h) Dirección del viento Racha (km/h) Dirección de racha Precipitación (mm) Presión (hPa) Tendencia (hPa) Humedad (%)
2019-12-14 23:00:00 8.2 20 Oeste 30 Oeste 0 -- -- 79
2019-12-14 22:00:00 8.2 15 Oeste 23 Oeste 0 -- -- 81
2019-12-14 21:00:00 8.2 10 Oeste 23 Oeste 0 -- -- 83
2019-12-14 20:00:00 8.2 12 Oeste 23 Oeste 0 -- -- 82
2019-12-14 19:00:00 8.6 17 Oeste 29 Oeste 0 -- -- 78
2019-12-14 18:00:00 8.5 18 Oeste 34 Oeste 0 -- -- 78
2019-12-14 17:00:00 9 23 Oeste 37 Oeste 0 -- -- 76
2019-12-14 16:00:00 9.7 27 Oeste 38 Oeste 0 -- -- 73
2019-12-14 15:00:00 8.8 26 Oeste 38 Oeste 0 -- -- 75
2019-12-14 14:00:00 9.1 26 Oeste 40 Oeste 0 -- -- 69
2019-12-14 13:00:00 8.3 24 Oeste 37 Oeste 0 -- -- 77
2019-12-14 12:00:00 8.1 23 Oeste 37 Oeste 0 -- -- 76
2019-12-14 11:00:00 7.9 24 Oeste 39 Oeste 0 -- -- 77
2019-12-14 10:00:00 7.7 18 Oeste 33 Oeste 0 -- -- 79
2019-12-14 09:00:00 7.5 18 Oeste 36 Oeste 0 -- -- 79
2019-12-14 08:00:00 7.6 21 Oeste 43 Oeste 0 -- -- 80
2019-12-14 07:00:00 7.7 28 Oeste 40 Oeste 0 -- -- 79
2019-12-14 06:00:00 7.8 24 Oeste 44 Oeste 0 -- -- 80
2019-12-14 05:00:00 8 22 Oeste 45 Oeste 0 -- -- 78
2019-12-14 04:00:00 8.1 26 Oeste 42 Oeste 0 -- -- 80
2019-12-14 03:00:00 8.2 26 Oeste 45 Oeste 0 -- -- 79
2019-12-14 02:00:00 8.5 31 Oeste 49 Oeste 0 -- -- 80
2019-12-14 01:00:00 8.8 35 Oeste 55 Oeste 0 -- -- 80
2019-12-14 00:00:00 9.1 27 Oeste 53 Oeste 0 -- -- 82
2019-12-13 23:00:00 9.4 35 Oeste 55 Oeste 0 -- -- 81
2019-12-13 22:00:00 9.6 35 Oeste 63 Oeste 0 -- -- 82
2019-12-13 21:00:00 9.7 39 Oeste 58 Oeste 0 -- -- 83
2019-12-13 20:00:00 10 42 Oeste 69 Oeste 0 -- -- 82
2019-12-13 19:00:00 10.2 43 Oeste 64 Oeste 0 -- -- 83
2019-12-13 18:00:00 10.8 44 Oeste 64 Oeste 0 -- -- 82
2019-12-13 17:00:00 11.2 44 Oeste 60 Oeste 0 -- -- 81
2019-12-13 16:00:00 11.4 47 Oeste 69 Oeste 0 -- -- 81
2019-12-13 15:00:00 12 54 Oeste 75 Oeste 0 -- -- 77
2019-12-13 14:00:00 11.7 51 Oeste 80 Oeste 0 -- -- 78
2019-12-13 13:00:00 11.3 53 Oeste 76 Oeste 0 -- -- 78
2019-12-13 12:00:00 11 53 Oeste 79 Oeste 0 -- -- 78
2019-12-13 11:00:00 9.6 46 Oeste 64 Oeste 0 -- -- 84
2019-12-13 10:00:00 9.2 49 Oeste 68 Oeste 0 -- -- 83
2019-12-13 09:00:00 9.2 48 Oeste 72 Oeste 0 -- -- 84
2019-12-13 08:00:00 9.5 55 Oeste 76 Oeste 0 -- -- 84
2019-12-13 07:00:00 9.6 46 Oeste 71 Oeste 0 -- -- 86
2019-12-13 06:00:00 9.8 54 Oeste 74 Oeste 0 -- -- 87
2019-12-13 05:00:00 9.5 39 Oeste 61 Oeste 0.4 -- -- 94
2019-12-13 04:00:00 9.5 45 Oeste 68 Oeste 0 -- -- 92
2019-12-13 03:00:00 9.9 41 Oeste 59 Oeste 0 -- -- 90
2019-12-13 02:00:00 9.5 40 Oeste 59 Oeste 0.2 -- -- 91
2019-12-13 01:00:00 9.2 35 Oeste 59 Oeste 0.6 -- -- 92
2019-12-13 00:00:00 9.3 38 Oeste 66 Oeste 0 -- -- 91
2019-12-12 23:00:00 9.1 40 Oeste 58 Oeste 0 -- -- 90
2019-12-12 22:00:00 8.8 43 Oeste 67 Oeste 0.2 -- -- 92
2019-12-12 21:00:00 7.8 37 Oeste 53 Oeste 0.8 -- -- 96
2019-12-12 20:00:00 7.2 39 Oeste 60 Oeste 1.6 -- -- 96
2019-12-12 19:00:00 6.8 41 Oeste 57 Oeste 1.8 -- -- 96
2019-12-12 18:00:00 5.7 38 Oeste 57 Oeste 2.4 -- -- 96
2019-12-12 17:00:00 5.6 39 Oeste 60 Oeste 1 -- -- 95
2019-12-12 16:00:00 5.1 37 Oeste 56 Oeste 3.6 -- -- 95
2019-12-12 15:00:00 4.8 36 Oeste 58 Oeste 3.6 -- -- 94
2019-12-12 14:00:00 4.6 36 Oeste 54 Oeste 2.6 -- -- 93
2019-12-12 13:00:00 4.6 36 Oeste 52 Oeste 1.8 -- -- 93
2019-12-12 12:00:00 4.4 32 Oeste 47 Oeste 1.2 -- -- 93
2019-12-12 11:00:00 4.2 32 Oeste 45 Oeste 2 -- -- 94
2019-12-12 10:00:00 3.9 30 Oeste 49 Oeste 1.4 -- -- 94
2019-12-12 09:00:00 3.6 23 Oeste 37 Oeste 0.2 -- -- 91
2019-12-12 08:00:00 3.6 15 Oeste 36 Oeste 0 -- -- 91
2019-12-12 07:00:00 3.4 16 Oeste 32 Oeste 0 -- -- 90
2019-12-12 06:00:00 3.5 21 Oeste 40 Oeste 0 -- -- 89
2019-12-12 05:00:00 3.1 26 Oeste 40 Oeste 0 -- -- 91
2019-12-12 04:00:00 2.9 19 Oeste 34 Oeste 0 -- -- 90
2019-12-12 03:00:00 2.7 19 Oeste 35 Oeste 0 -- -- 89
2019-12-12 02:00:00 2.9 24 Oeste 32 Oeste 0 -- -- 89
2019-12-12 01:00:00 3 22 Oeste 48 Oeste 0 -- -- 88
2019-12-12 00:00:00 2.7 29 Oeste 40 Oeste 0 -- -- 89
2019-12-11 23:00:00 2 19 Oeste 34 Oeste 0 -- -- 87
2019-12-11 22:00:00 2.2 24 Oeste 33 Oeste 0 -- -- 85
2019-12-11 21:00:00 2.2 18 Oeste 35 Oeste 0 -- -- 83
2019-12-11 20:00:00 2.9 25 Oeste 32 Oeste 0 -- -- 80
2019-12-11 19:00:00 3.4 27 Oeste 36 Oeste 0 -- -- 80
2019-12-11 18:00:00 4.6 29 Oeste 44 Oeste 0 -- -- 78
2019-12-11 17:00:00 5 19 Oeste 36 Oeste 0 -- -- 85
2019-12-11 16:00:00 5.3 22 Oeste 38 Oeste 0 -- -- 87
2019-12-11 15:00:00 4.2 18 Noroeste 33 Oeste 0 -- -- 92
2019-12-11 14:00:00 4 21 Oeste 35 Oeste 0 -- -- 94
2019-12-11 13:00:00 3.7 22 Oeste 35 Oeste 0 -- -- 95
2019-12-11 12:00:00 3.1 26 Oeste 34 Oeste 0.6 -- -- 95
2019-12-11 11:00:00 2.8 21 Oeste 25 Oeste 1 -- -- 94
2019-12-11 10:00:00 2.7 14 Noroeste 21 Noroeste 1.4 -- -- 91
2019-12-11 09:00:00 3.9 11 Noroeste 24 Noroeste 0.8 -- -- 85
2019-12-11 08:00:00 1.9 0 Calma 3 Sudeste 0 -- -- 95
2019-12-11 07:00:00 1 0 Calma 4 Sudeste 0 -- -- 95
2019-12-11 06:00:00 0.5 0 Calma 4 Sudeste 0 -- -- 95
2019-12-11 05:00:00 -0.2 2 Sudeste 3 Sudeste 0 -- -- 96
2019-12-11 04:00:00 0 0 Calma 3 Este 0 -- -- 96
2019-12-11 03:00:00 -0.2 0 Calma 3 Sudeste 0 -- -- 96
2019-12-11 02:00:00 -0.2 0 Calma 4 Sudeste 0 -- -- 95
2019-12-11 01:00:00 -0.2 0 Calma 4 Sudeste 0 -- -- 95
2019-12-11 00:00:00 0.9 2 Sudeste 8 Oeste 0 -- -- 93
2019-12-10 23:00:00 1.7 3 Oeste 8 Oeste 0 -- -- 88
2019-12-10 22:00:00 3.6 6 Oeste 9 Oeste 0 -- -- 86
2019-12-10 21:00:00 4 7 Oeste 12 Oeste 0 -- -- 85
2019-12-10 20:00:00 4.8 8 Oeste 13 Oeste 0 -- -- 79
2019-12-10 19:00:00 6.3 8 Noroeste 11 Noroeste 0 -- -- 74
2019-12-10 18:00:00 6.4 2 Noroeste 11 Noroeste 0 -- -- 76
2019-12-10 17:00:00 8.3 6 Noroeste 17 Noroeste 0 -- -- 67
2019-12-10 16:00:00 9.8 11 Noroeste 18 Noroeste 0 -- -- 57
2019-12-10 15:00:00 8.8 14 Oeste 21 Oeste 0 -- -- 67
2019-12-10 14:00:00 8.9 13 Oeste 22 Oeste 0 -- -- 69
2019-12-10 13:00:00 7.7 18 Oeste 23 Oeste 0 -- -- 72
2019-12-10 12:00:00 6.5 11 Noroeste 17 Noroeste 0 -- -- 89
2019-12-10 11:00:00 3.2 5 Oeste 14 Oeste 0 -- -- 94
2019-12-10 10:00:00 0.9 6 Oeste 9 Oeste 0 -- -- 95
2019-12-10 09:00:00 -0.4 4 Sudoeste 8 Oeste 0 -- -- 97
2019-12-10 08:00:00 -0.6 2 Sudeste 15 Oeste 0 -- -- 97
2019-12-10 07:00:00 0.8 12 Oeste 16 Oeste 0 -- -- 96
2019-12-10 06:00:00 0.3 7 Oeste 17 Oeste 0 -- -- 96
2019-12-10 05:00:00 0.5 6 Oeste 17 Oeste 0 -- -- 95
2019-12-10 04:00:00 0.7 11 Oeste 18 Oeste 0 -- -- 95
2019-12-10 03:00:00 1.1 10 Oeste 17 Oeste 0 -- -- 95
2019-12-10 02:00:00 1.4 10 Oeste 17 Oeste 0 -- -- 93
2019-12-10 01:00:00 1.4 12 Oeste 17 Oeste 0 -- -- 93
2019-12-10 00:00:00 1.8 15 Oeste 20 Oeste 0 -- -- 92
2019-12-09 23:00:00 2.9 15 Oeste 26 Oeste 0 -- -- 87
2019-12-09 22:00:00 3.5 21 Oeste 28 Oeste 0 -- -- 86
2019-12-09 21:00:00 4 21 Oeste 25 Oeste 0 -- -- 85
2019-12-09 20:00:00 4.3 14 Oeste 28 Oeste 0 -- -- 85
2019-12-09 19:00:00 4.7 16 Oeste 23 Oeste 0 -- -- 84
2019-12-09 18:00:00 5.6 21 Oeste 30 Oeste 0 -- -- 79
2019-12-09 17:00:00 7.4 20 Oeste 37 Oeste 0 -- -- 72
2019-12-09 16:00:00 8.6 19 Oeste 39 Oeste 0 -- -- 66
2019-12-09 15:00:00 8.4 30 Oeste 40 Oeste 0 -- -- 70
2019-12-09 14:00:00 7.4 24 Oeste 39 Oeste 0 -- -- 73
2019-12-09 13:00:00 6.9 28 Oeste 39 Oeste 0 -- -- 74
2019-12-09 12:00:00 5.9 24 Oeste 34 Oeste 0 -- -- 80
2019-12-09 11:00:00 5.9 21 Oeste 45 Noroeste 0 -- -- 84
2019-12-09 10:00:00 5.2 25 Noroeste 37 Noroeste 0 -- -- 92
2019-12-09 09:00:00 4.3 23 Oeste 46 Noroeste 0 -- -- 94
2019-12-09 08:00:00 4.3 21 Oeste 36 Oeste 0 -- -- 94
2019-12-09 07:00:00 4.4 24 Oeste 45 Oeste 0 -- -- 91
2019-12-09 06:00:00 5.1 29 Oeste 44 Oeste 0 -- -- 92
2019-12-09 05:00:00 5.7 26 Oeste 37 Oeste 0 -- -- 94
2019-12-09 04:00:00 5.8 16 Noroeste 23 Noroeste 0 -- -- 95
2019-12-09 03:00:00 5.7 14 Oeste 21 Oeste 0 -- -- 95
2019-12-09 02:00:00 6 13 Oeste 25 Oeste 0 -- -- 96
2019-12-09 01:00:00 6.6 18 Oeste 30 Noroeste 0 -- -- 97
2019-12-09 00:00:00 6.7 14 Oeste 21 Oeste 0 -- -- 98
2019-12-08 23:00:00 6.7 8 Oeste 15 Noroeste 0 -- -- 98
2019-12-08 22:00:00 6.4 13 Oeste 21 Oeste 0 -- -- 98
2019-12-08 21:00:00 6.7 10 Noroeste 17 Noroeste 0 -- -- 98
2019-12-08 20:00:00 6.3 9 Noroeste 18 Noroeste 0.2 -- -- 98
2019-12-08 19:00:00 6.4 6 Norte 12 Noroeste 0 -- -- 98
2019-12-08 18:00:00 6.5 5 Noroeste 14 Oeste 0.8 -- -- 97
2019-12-08 17:00:00 6.4 6 Noroeste 10 Noroeste 0.4 -- -- 97
2019-12-08 16:00:00 5.9 5 Oeste 14 Oeste 0.8 -- -- 97
2019-12-08 15:00:00 5.7 10 Oeste 23 Oeste 0.8 -- -- 97
2019-12-08 14:00:00 5.9 12 Noroeste 17 Noroeste 0 -- -- 96
2019-12-08 13:00:00 6.7 8 Noroeste 15 Noroeste 0 -- -- 95
2019-12-08 12:00:00 4.6 0 Calma 3 Sudeste 0 -- -- 97
2019-12-08 11:00:00 2.3 0 Calma 4 Sudeste 0 -- -- 97
2019-12-08 10:00:00 -0.2 0 Calma 4 Sur 0 -- -- 97
2019-12-08 09:00:00 -1.9 0 Calma 2 Sudeste 0 -- -- 98
2019-12-08 08:00:00 -2.6 0 Calma 4 Este 0 -- -- 98
2019-12-08 07:00:00 -2.6 2 Sudeste 3 Sudeste 0 -- -- 98
2019-12-08 06:00:00 -2.6 0 Calma 2 Este 0 -- -- 98
2019-12-08 05:00:00 -2.5 0 Calma 2 Sudeste 0 -- -- 98
2019-12-08 04:00:00 -2.3 0 Calma 4 Este 0 -- -- 98
2019-12-08 03:00:00 -1.8 3 Este 5 Sudeste 0 -- -- 97
2019-12-08 02:00:00 -1.3 0 Calma 4 Sudeste 0 -- -- 98
2019-12-08 01:00:00 -0.9 -- -- -- -- 0 -- -- 97
2019-12-08 00:00:00 -0.6 0 Calma 3 Sudeste 0 -- -- 96
2019-12-07 23:00:00 0.4 0 Calma 4 Sudeste 0 -- -- 95
2019-12-07 22:00:00 1.9 0 Calma 6 Oeste 0 -- -- 93
2019-12-07 21:00:00 3.7 5 Sudoeste 6 Sudoeste 0 -- -- 88
2019-12-07 20:00:00 3.8 0 Calma 11 Oeste 0 -- -- 90
2019-12-07 19:00:00 6 8 Oeste 17 Sudoeste 0 -- -- 80
2019-12-07 18:00:00 7.3 10 Noroeste 17 Noroeste 0 -- -- 73
2019-12-07 17:00:00 10.3 14 Oeste 19 Oeste 0 -- -- 64
2019-12-07 16:00:00 11.5 12 Oeste 18 Oeste 0 -- -- 67
2019-12-07 15:00:00 11.1 14 Oeste 19 Oeste 0 -- -- 63
2019-12-07 14:00:00 10.2 10 Oeste 18 Oeste 0 -- -- 72
2019-12-07 13:00:00 9 3 Sudoeste 5 Sudoeste 0 -- -- 89
2019-12-07 12:00:00 3.8 2 Este 5 Este 0 -- -- 94
2019-12-07 11:00:00 0.2 3 Este 5 Este 0.2 -- -- 97
2019-12-07 10:00:00 -0.8 0 Calma 0 Calma 0 -- -- 97
2019-12-07 09:00:00 -1.8 0 Calma 3 Este 0 -- -- 98
2019-12-07 08:00:00 -2 0 Calma 4 Este 0 -- -- 98
2019-12-07 07:00:00 -2.1 2 Nordeste 4 Este 0 -- -- 99
2019-12-07 06:00:00 -2.6 3 Este 5 Nordeste 0 -- -- 97
2019-12-07 05:00:00 -2.6 2 Este 5 Nordeste 0 -- -- 98
2019-12-07 04:00:00 -2.2 3 Sudeste 5 Nordeste 0 -- -- 97
2019-12-07 03:00:00 -1.8 2 Nordeste 3 Nordeste 0 -- -- 98
2019-12-07 02:00:00 -1.4 0 Calma 5 Este 0 -- -- 98
2019-12-07 01:00:00 -1.2 2 Este 4 Este 0 -- -- 97
2019-12-07 00:00:00 -0.7 2 Nordeste 4 Nordeste 0 -- -- 97
2019-12-06 23:00:00 0.5 0 Calma 3 Sudeste 0 -- -- 97
2019-12-06 22:00:00 1.1 3 Sudeste 4 Nordeste 0 -- -- 95
2019-12-06 21:00:00 2 2 Este 5 Este 0 -- -- 95
2019-12-06 20:00:00 3.4 2 Sudeste 4 Sudeste 0 -- -- 93
2019-12-06 19:00:00 5.3 0 Calma 5 Noroeste 0 -- -- 89
2019-12-06 18:00:00 6.7 4 Noroeste 4 Noroeste 0 -- -- 82
2019-12-06 17:00:00 12.7 2 Oeste 5 Sudeste 0 -- -- 60
2019-12-06 16:00:00 14.3 3 Este 12 Sudeste 0 -- -- 57
2019-12-06 15:00:00 12 7 Este 22 Este 0 -- -- 64
2019-12-06 14:00:00 10.6 10 Este 22 Este 0 -- -- 69
2019-12-06 13:00:00 8.5 14 Este 22 Este 0 -- -- 76
2019-12-06 12:00:00 6.2 12 Este 19 Este 0 -- -- 88
2019-12-06 11:00:00 3.4 4 Este 6 Este 0 -- -- 95
2019-12-06 10:00:00 0.6 3 Este 5 Este 0 -- -- 96
2019-12-06 09:00:00 -0.7 0 Calma 4 Este 0 -- -- 97
2019-12-06 08:00:00 -0.9 0 Calma 4 Sudeste 0 -- -- 97
2019-12-06 07:00:00 -0.3 4 Este 7 Este 0 -- -- 96
2019-12-06 06:00:00 0.6 4 Este 8 Nordeste 0 -- -- 96
2019-12-06 05:00:00 1.1 6 Nordeste 8 Nordeste 0 -- -- 94
2019-12-06 04:00:00 1.7 0 Calma 7 Nordeste 0 -- -- 94
2019-12-06 03:00:00 2.5 3 Este 8 Este 0 -- -- 94
2019-12-06 02:00:00 3.4 0 Calma 6 Este 0 -- -- 92
2019-12-06 01:00:00 3.6 2 Nordeste 6 Este 0 -- -- 92
2019-12-06 00:00:00 3.9 3 Este 5 Sudeste 0 -- -- 91
2019-12-05 23:00:00 3.6 3 Sudeste 6 Nordeste 0 -- -- 92
2019-12-05 22:00:00 4 0 Calma 6 Este 0 -- -- 88
2019-12-05 21:00:00 3.2 0 Calma 10 Este 0 -- -- 91
2019-12-05 20:00:00 4.8 7 Este 12 Este 0 -- -- 87
2019-12-05 19:00:00 5.3 8 Este 11 Este 0 -- -- 85
2019-12-05 18:00:00 7.1 4 Este 19 Este 0 -- -- 75
2019-12-05 17:00:00 11 12 Este 21 Este 0 -- -- 63
2019-12-05 16:00:00 10.6 12 Este 32 Este 0 -- -- 65
2019-12-05 15:00:00 11.6 21 Este 36 Este 0 -- -- 61
2019-12-05 14:00:00 11.3 18 Este 27 Este 0 -- -- 64
2019-12-05 13:00:00 9.9 14 Este 20 Este 0 -- -- 65
2019-12-05 12:00:00 8.1 4 Sudeste 6 Sudeste 0 -- -- 77
2019-12-05 11:00:00 6.4 2 Este 8 Nordeste 0 -- -- 85
2019-12-05 10:00:00 4.2 3 Nordeste 5 Nordeste 0 -- -- 95
2019-12-05 09:00:00 3.2 0 Calma 4 Noroeste 0 -- -- 95
2019-12-05 08:00:00 3.2 0 Calma 2 Noroeste 0 -- -- 95
2019-12-05 07:00:00 2.9 0 Calma 5 Noroeste 0 -- -- 95
2019-12-05 06:00:00 2.8 0 Calma 3 Sudoeste 0 -- -- 96
2019-12-05 05:00:00 2.3 0 Calma 5 Sudoeste 0 -- -- 96
2019-12-05 04:00:00 1.7 0 Calma 5 Sudeste 0 -- -- 97
2019-12-05 03:00:00 1.5 0 Calma 6 Sudeste 0 -- -- 96
2019-12-05 02:00:00 2.2 3 Sudeste 6 Este 0 -- -- 95
2019-12-05 01:00:00 2.6 3 Oeste 7 Oeste 0 -- -- 95
2019-12-05 00:00:00 2.9 2 Sudoeste 4 Sudoeste 0 -- -- 93
2019-12-04 23:00:00 3.1 2 Sur 6 Sudoeste 0 -- -- 91
2019-12-04 22:00:00 5 2 Sudeste 7 Sudoeste 0 -- -- 83
2019-12-04 21:00:00 5.9 10 Noroeste 15 Oeste 0 -- -- 89
2019-12-04 20:00:00 6.5 11 Oeste 15 Oeste 0 -- -- 86
2019-12-04 19:00:00 7.4 4 Sudoeste 12 Oeste 0 -- -- 86
2019-12-04 18:00:00 8 10 Oeste 12 Sudoeste 0 -- -- 83
2019-12-04 17:00:00 10 6 Sudeste 19 Este 0 -- -- 69
2019-12-04 16:00:00 11.6 6 Nordeste 13 Noroeste 0 -- -- 65
2019-12-04 15:00:00 9.6 8 Noroeste 14 Noroeste 0 -- -- 77
2019-12-04 14:00:00 9.6 11 Noroeste 15 Noroeste 0 -- -- 76
2019-12-04 13:00:00 8 10 Oeste 15 Oeste 0 -- -- 82
2019-12-04 12:00:00 9.6 4 Sur 7 Sur 0 -- -- 75
2019-12-04 11:00:00 4.9 0 Calma 7 Oeste 0 -- -- 93
2019-12-04 10:00:00 2.6 2 Sudoeste 4 Sudoeste 0 -- -- 96
2019-12-04 09:00:00 2.1 0 Calma 4 Noroeste 0 -- -- 96
2019-12-04 08:00:00 1.1 4 Noroeste 5 Oeste 0 -- -- 96
2019-12-04 07:00:00 0.6 2 Sudeste 6 Nordeste 0 -- -- 96
2019-12-04 06:00:00 1.2 0 Calma 3 Este 0 -- -- 95
2019-12-04 05:00:00 1.2 2 Este 4 Este 0 -- -- 95
2019-12-04 04:00:00 0.9 0 Calma 6 Este 0 -- -- 95
2019-12-04 03:00:00 0.7 3 Nordeste 5 Nordeste 0.2 -- -- 94
2019-12-04 02:00:00 0.5 0 Calma 8 Este 0 -- -- 94
2019-12-04 01:00:00 0.1 10 Este 14 Nordeste 0 -- -- 95
2019-12-04 00:00:00 -0.2 3 Este 9 Este 0 -- -- 95
2019-12-03 23:00:00 -0.2 5 Este 10 Este 0 -- -- 94
2019-12-03 22:00:00 -0.2 4 Nordeste 10 Este 0 -- -- 94
2019-12-03 21:00:00 -0.2 2 Este 5 Nordeste 0 -- -- 90
2019-12-03 20:00:00 0.5 3 Este 11 Nordeste 0 -- -- 91
2019-12-03 19:00:00 0.9 8 Sudeste 22 Sudeste 0 -- -- 88
2019-12-03 18:00:00 1.5 11 Sudeste 23 Sudeste 0 -- -- 84
2019-12-03 17:00:00 3.1 13 Sudeste 29 Este 0 -- -- 78
2019-12-03 16:00:00 4.9 16 Sudeste 26 Sudeste 0 -- -- 72
2019-12-03 15:00:00 5.6 18 Sudeste 30 Este 0 -- -- 69
2019-12-03 14:00:00 6.8 16 Este 26 Este 0 -- -- 60
2019-12-03 13:00:00 5.1 12 Sudeste 22 Este 0 -- -- 68
2019-12-03 12:00:00 4.2 15 Este 22 Este 0.2 -- -- 72
2019-12-03 11:00:00 3.6 3 Este 5 Este 0 -- -- 77
2019-12-03 10:00:00 -0.7 2 Este 5 Este 0 -- -- 88
2019-12-03 09:00:00 -4.2 2 Este 4 Nordeste 0 -- -- 94
2019-12-03 08:00:00 -5.8 0 Calma 2 Sudeste 0 -- -- 96
2019-12-03 07:00:00 -5.2 2 Sudeste 4 Sur 0 -- -- 97
2019-12-03 06:00:00 -4.7 0 Calma 4 Este 0 -- -- 97
2019-12-03 05:00:00 -4.7 3 Sudeste 5 Este 0 -- -- 97
2019-12-03 04:00:00 -4 2 Nordeste 4 Nordeste 0 -- -- 97
2019-12-03 03:00:00 -3.9 0 Calma 3 Este 0 -- -- 97
2019-12-03 02:00:00 -3.2 3 Sudeste 4 Sudeste 0 -- -- 96
2019-12-03 01:00:00 -2.7 3 Sudeste 4 Sudeste 0 -- -- 96
2019-12-03 00:00:00 -2.5 0 Calma 2 Este 0 -- -- 95
2019-12-02 23:00:00 -1.8 0 Calma 4 Sur 0 -- -- 95
2019-12-02 22:00:00 -0.6 0 Calma 6 Sur 0 -- -- 92
2019-12-02 21:00:00 1 0 Calma 7 Nordeste 0 -- -- 87
2019-12-02 20:00:00 2.5 5 Este 10 Este 0 -- -- 83
2019-12-02 19:00:00 3.7 3 Este 14 Este 0 -- -- 78
2019-12-02 18:00:00 5.4 11 Este 28 Este 0 -- -- 71
2019-12-02 17:00:00 8 19 Este 31 Este 0 -- -- 61
2019-12-02 16:00:00 9.2 22 Este 37 Este 0 -- -- 58
2019-12-02 15:00:00 9.1 27 Este 42 Este 0 -- -- 58
2019-12-02 14:00:00 10.4 27 Este 42 Este 0 -- -- 52
2019-12-02 13:00:00 9.9 15 Este 30 Este 0 -- -- 56
2019-12-02 12:00:00 9.4 17 Este 26 Nordeste 0 -- -- 60
2019-12-02 11:00:00 7.7 3 Este 5 Este 0 -- -- 79
2019-12-02 10:00:00 2.9 2 Sudeste 5 Sudeste 0 -- -- 89
2019-12-02 09:00:00 -0.8 0 Calma 4 Noroeste 0 -- -- 98
2019-12-02 08:00:00 -1.9 0 Calma 2 Sur 0 -- -- 98
2019-12-02 07:00:00 -2 0 Calma 4 Sudeste 0 -- -- 98
2019-12-02 06:00:00 -1.6 0 Calma 5 Sudeste 0 -- -- 98
2019-12-02 05:00:00 -1.4 0 Calma 3 Este 0 -- -- 97
2019-12-02 04:00:00 -0.8 0 Calma 3 Sudeste 0 -- -- 96
2019-12-02 03:00:00 0.3 0 Calma 2 Sudeste 0 -- -- 95
2019-12-02 02:00:00 1.4 2 Sudeste 4 Sudeste 0 -- -- 94
2019-12-02 01:00:00 2.4 0 Calma 6 Nordeste 0 -- -- 91
2019-12-02 00:00:00 4 3 Norte 10 Nordeste 0 -- -- 88
2019-12-01 23:00:00 4.2 3 Nordeste 9 Este 0 -- -- 89
2019-12-01 22:00:00 4.3 6 Este 10 Este 0 -- -- 88
2019-12-01 21:00:00 5 6 Este 12 Este 0 -- -- 87
2019-12-01 20:00:00 5.6 6 Este 12 Nordeste 0 -- -- 87
2019-12-01 19:00:00 5 5 Nordeste 9 Nordeste 0 -- -- 86
2019-12-01 18:00:00 6 5 Nordeste 9 Nordeste 0 -- -- 83
2019-12-01 17:00:00 7.6 7 Este 14 Sudeste 0 -- -- 73
2019-12-01 16:00:00 8.5 10 Este 17 Este 0 -- -- 67
2019-12-01 15:00:00 9.4 8 Nordeste 15 Este 0 -- -- 65
2019-12-01 14:00:00 8.6 8 Este 12 Este 0 -- -- 67
2019-12-01 13:00:00 9.8 6 Este 15 Este 0 -- -- 61
2019-12-01 12:00:00 7.6 8 Este 15 Este 0 -- -- 77
2019-12-01 11:00:00 5.9 6 Este 13 Sudeste 0 -- -- 82
2019-12-01 10:00:00 4.8 7 Nordeste 14 Este 0 -- -- 90
2019-12-01 09:00:00 2.5 8 Este 13 Este 0 -- -- 94
2019-12-01 08:00:00 1.5 6 Este 10 Este 0 -- -- 97
2019-12-01 07:00:00 2.3 3 Este 6 Nordeste 0 -- -- 97
2019-12-01 06:00:00 2.8 4 Sudeste 6 Sudeste 0 -- -- 95
2019-12-01 05:00:00 2.6 2 Nordeste 3 Nordeste 0 -- -- 94
2019-12-01 04:00:00 2.8 0 Calma 2 Sudeste 0 -- -- 92
2019-12-01 03:00:00 3.5 0 Calma 7 Oeste 0 -- -- 91
2019-12-01 02:00:00 4.5 6 Oeste 13 Oeste 0 -- -- 87
2019-12-01 01:00:00 4.5 10 Oeste 20 Oeste 0 -- -- 86
2019-12-01 00:00:00 4.4 8 Oeste 27 Oeste 0 -- -- 85
2019-11-30 23:00:00 4.6 22 Oeste 34 Oeste 0 -- -- 85
2019-11-30 22:00:00 5.6 22 Oeste 42 Oeste 0 -- -- 79
2019-11-30 21:00:00 6 22 Oeste 39 Oeste 0 -- -- 81
2019-11-30 20:00:00 6.6 20 Oeste 31 Sudoeste 2.6 -- -- 94
2019-11-30 19:00:00 6.5 6 Noroeste 42 Noroeste 3.6 -- -- 94
2019-11-30 18:00:00 8.1 27 Oeste 45 Oeste 1.6 -- -- 94
2019-11-30 17:00:00 8.7 32 Noroeste 53 Noroeste 4.2 -- -- 93
2019-11-30 16:00:00 10.8 11 Sudoeste 32 Sudoeste 1 -- -- 94
2019-11-30 15:00:00 11.7 17 Sur 27 Sudoeste 0.6 -- -- 84
2019-11-30 14:00:00 12.6 16 Sur 35 Sur 0 -- -- 79
2019-11-30 13:00:00 13.3 9 Sur 31 Sudoeste 0 -- -- 77
2019-11-30 12:00:00 13.3 19 Sudoeste 30 Sudoeste 0 -- -- 76
2019-11-30 11:00:00 12.1 13 Sudoeste 24 Sudoeste 0 -- -- 86
2019-11-30 10:00:00 10.2 3 Sudoeste 9 Sudoeste 0 -- -- 96
2019-11-30 09:00:00 9.4 8 Sudoeste 11 Sudoeste 0 -- -- 97
2019-11-30 08:00:00 8.5 0 Calma 5 Este 0 -- -- 99
2019-11-30 07:00:00 8.3 3 Este 4 Este 0.2 -- -- 98
2019-11-30 06:00:00 8.2 0 Calma 5 Sur 0 -- -- 98
2019-11-30 05:00:00 8 2 Sur 4 Sur 0 -- -- 98
2019-11-30 04:00:00 7.5 0 Calma 4 Sudeste 2.8 -- -- 97
2019-11-30 03:00:00 7.7 2 Nordeste 4 Sudeste 0.2 -- -- 97
2019-11-30 02:00:00 7.4 0 Calma 6 Sudeste 0 -- -- 97
2019-11-30 01:00:00 7.5 3 Sudeste 4 Sudeste 0.2 -- -- 97
2019-11-30 00:00:00 7.7 0 Calma 0 Calma 0 -- -- 96
2019-11-29 23:00:00 7.3 0 Calma 4 Sudeste 0 -- -- 96
2019-11-29 22:00:00 7.4 0 Calma 5 Sur 0 -- -- 95
2019-11-29 21:00:00 8.6 0 Calma 5 Sur 0 -- -- 93
2019-11-29 20:00:00 9.4 4 Sudoeste 5 Sudoeste 0 -- -- 92
2019-11-29 19:00:00 10 4 Sudoeste 6 Sudoeste 0 -- -- 88
2019-11-29 18:00:00 10.9 0 Calma 13 Noroeste 0 -- -- 84
2019-11-29 17:00:00 11.8 9 Noroeste 20 Noroeste 0 -- -- 80
2019-11-29 16:00:00 12.8 15 Noroeste 27 Noroeste 0 -- -- 77
2019-11-29 15:00:00 13.6 16 Noroeste 27 Noroeste 0 -- -- 75
2019-11-29 14:00:00 12.2 18 Noroeste 24 Noroeste 0 -- -- 85
2019-11-29 13:00:00 11.6 12 Noroeste 21 Noroeste 0.2 -- -- 86
2019-11-29 12:00:00 11.1 13 Noroeste 19 Oeste 0 -- -- 92
2019-11-29 11:00:00 10.4 7 Noroeste 17 Oeste 0 -- -- 93
2019-11-29 10:00:00 10.2 9 Noroeste 19 Noroeste 0 -- -- 95
2019-11-29 09:00:00 9.8 9 Oeste 15 Oeste 0 -- -- 96
2019-11-29 08:00:00 9.8 13 Oeste 19 Oeste 0.2 -- -- 96
2019-11-29 07:00:00 9.9 12 Oeste 22 Oeste 0 -- -- 96
2019-11-29 06:00:00 9.7 14 Oeste 19 Oeste 0 -- -- 95
2019-11-29 05:00:00 9.7 12 Oeste 18 Oeste 0 -- -- 94
2019-11-29 04:00:00 9.7 17 Oeste 24 Oeste 0 -- -- 94
2019-11-29 03:00:00 9.2 13 Oeste 33 Oeste 0 -- -- 95
2019-11-29 02:00:00 9.1 20 Oeste 35 Oeste 0 -- -- 94
2019-11-29 01:00:00 9.1 27 Oeste 51 Oeste 0.2 -- -- 93
2019-11-29 00:00:00 9.1 31 Oeste 44 Oeste 0.4 -- -- 92
2019-11-28 23:00:00 9.7 27 Oeste 42 Oeste 0.2 -- -- 85
2019-11-28 22:00:00 10.7 27 Oeste 41 Oeste 0 -- -- 77
2019-11-28 21:00:00 10.4 27 Oeste 38 Oeste 0 -- -- 80
2019-11-28 20:00:00 10.2 21 Oeste 33 Oeste 0 -- -- 81
2019-11-28 19:00:00 9.9 21 Oeste 28 Oeste 0.4 -- -- 81
2019-11-28 18:00:00 10.5 20 Oeste 42 Oeste 0 -- -- 73
2019-11-28 17:00:00 11 29 Oeste 44 Oeste 0 -- -- 72
2019-11-28 16:00:00 11.5 30 Oeste 42 Oeste 0 -- -- 72
2019-11-28 15:00:00 11.4 28 Oeste 44 Sudoeste 0 -- -- 75
2019-11-28 14:00:00 10.7 37 Oeste 50 Oeste 0 -- -- 78
2019-11-28 13:00:00 12 30 Oeste 45 Oeste 0 -- -- 71
2019-11-28 12:00:00 10.8 30 Oeste 48 Oeste 0 -- -- 77
2019-11-28 11:00:00 10 32 Oeste 45 Oeste 0 -- -- 80
2019-11-28 10:00:00 9.2 34 Oeste 45 Oeste 0 -- -- 85
2019-11-28 09:00:00 8.2 24 Oeste 38 Oeste 0 -- -- 89
2019-11-28 08:00:00 8 26 Oeste 40 Oeste 0 -- -- 89
2019-11-28 07:00:00 7.8 25 Oeste 42 Oeste 0 -- -- 90
2019-11-28 06:00:00 7.8 28 Oeste 42 Oeste 0 -- -- 89
2019-11-28 05:00:00 8 31 Oeste 44 Oeste 0 -- -- 87
2019-11-28 04:00:00 7.6 28 Oeste 48 Oeste 0.2 -- -- 90
2019-11-28 03:00:00 7.8 31 Oeste 45 Oeste 0 -- -- 89
2019-11-28 02:00:00 8.1 24 Oeste 35 Oeste 0 -- -- 87
2019-11-28 01:00:00 7.9 19 Oeste 39 Oeste 1 -- -- 89
2019-11-28 00:00:00 7.8 26 Oeste 36 Oeste 0.2 -- -- 89
2019-11-27 23:00:00 8.6 23 Oeste 35 Oeste 0 -- -- 82
2019-11-27 22:00:00 8.6 23 Oeste 39 Oeste 0 -- -- 80
2019-11-27 21:00:00 8.4 24 Oeste 36 Oeste 0 -- -- 80
2019-11-27 20:00:00 8.7 24 Oeste 37 Oeste 0 -- -- 79
2019-11-27 19:00:00 9 28 Oeste 38 Oeste 0 -- -- 77
2019-11-27 18:00:00 8.7 18 Oeste 37 Oeste 0.2 -- -- 81
2019-11-27 17:00:00 9.1 26 Oeste 44 Oeste 0 -- -- 78
2019-11-27 16:00:00 10 28 Oeste 46 Sudoeste 0 -- -- 70
2019-11-27 15:00:00 9.9 32 Sudoeste 48 Oeste 0 -- -- 70
2019-11-27 14:00:00 9 33 Sudoeste 47 Sudoeste 0 -- -- 77
2019-11-27 06:00:00 -- -- -- -- -- -- -- -- --
2019-11-27 05:00:00 -- -- -- -- -- -- -- -- --
2019-11-27 04:00:00 -- -- -- -- -- -- -- -- --
2019-11-27 03:00:00 -- -- -- -- -- -- -- -- --
2019-11-27 02:00:00 8.9 29 Oeste 42 Oeste 0 -- -- 83
2019-11-27 01:00:00 8.7 27 Oeste 58 Oeste 1.8 -- -- 92
2019-11-27 00:00:00 10.8 41 Oeste 64 Oeste 0 -- -- 76
2019-11-26 23:00:00 11.5 28 Oeste 54 Sudoeste 0 -- -- 78
2019-11-26 22:00:00 11.3 19 Oeste 41 Oeste 0 -- -- 85
2019-11-26 21:00:00 10.9 9 Sudoeste 26 Sudoeste 0 -- -- 88
2019-11-26 20:00:00 11.9 21 Sudoeste 40 Sudoeste 0 -- -- 81
2019-11-26 19:00:00 12.1 19 Sur 34 Sur 0 -- -- 78
2019-11-26 18:00:00 11.9 20 Sur 35 Sur 0 -- -- 77
2019-11-26 17:00:00 12.2 24 Sur 40 Sur 0 -- -- 77
2019-11-26 16:00:00 13.6 19 Sur 30 Sudoeste 0 -- -- 72
2019-11-26 15:00:00 12.9 18 Sudoeste 30 Sudoeste 0 -- -- 77
2019-11-26 14:00:00 12.7 2 Este 6 Este 0 -- -- 90
2019-11-26 13:00:00 11.4 3 Este 9 Este 0.2 -- -- 93
2019-11-26 12:00:00 9.7 6 Este 11 Nordeste 0 -- -- 94
2019-11-26 11:00:00 9 7 Este 10 Este 0.2 -- -- 94
2019-11-26 10:00:00 7.4 8 Este 12 Este 0.2 -- -- 96
2019-11-26 09:00:00 7.3 5 Este 8 Este 0 -- -- 96
2019-11-26 08:00:00 7.4 0 Calma 4 Noroeste 0.2 -- -- 95
2019-11-26 07:00:00 7.4 0 Calma 3 Este 0 -- -- 94
2019-11-26 06:00:00 7.3 0 Calma 4 Sudeste 0 -- -- 92
2019-11-26 05:00:00 7.4 2 Norte 13 Oeste 0 -- -- 90
2019-11-26 04:00:00 8.7 8 Oeste 15 Oeste 0 -- -- 88
2019-11-26 03:00:00 8.8 10 Oeste 15 Oeste 0 -- -- 88
2019-11-26 02:00:00 8.7 9 Oeste 15 Oeste 0 -- -- 89
2019-11-26 01:00:00 8.4 2 Oeste 17 Oeste 0 -- -- 89
2019-11-26 00:00:00 8.6 10 Oeste 17 Oeste 0 -- -- 88
2019-11-25 23:00:00 8.8 12 Oeste 24 Oeste 0 -- -- 86
2019-11-25 22:00:00 9.5 18 Oeste 33 Oeste 0 -- -- 81
2019-11-25 21:00:00 9.3 15 Oeste 25 Oeste 0 -- -- 83
2019-11-25 20:00:00 9.2 12 Oeste 19 Oeste 0 -- -- 83
2019-11-25 19:00:00 9.7 14 Oeste 21 Oeste 0 -- -- 80
2019-11-25 18:00:00 10.1 17 Oeste 35 Oeste 0 -- -- 76
2019-11-25 17:00:00 11.2 29 Oeste 39 Oeste 0 -- -- 74
2019-11-25 16:00:00 11.7 19 Oeste 33 Oeste 0 -- -- 80
2019-11-25 15:00:00 12.2 21 Oeste 40 Oeste 0 -- -- 77
2019-11-25 14:00:00 11.5 28 Oeste 38 Oeste 0.2 -- -- 81
2019-11-25 13:00:00 9.8 30 Oeste 44 Oeste 0 -- -- 90
2019-11-25 12:00:00 10.4 27 Oeste 40 Oeste 0 -- -- 86
2019-11-25 11:00:00 9.4 10 Oeste 28 Oeste 0.2 -- -- 93
2019-11-25 10:00:00 9.6 6 Oeste 19 Oeste 0 -- -- 89
2019-11-25 09:00:00 9.1 14 Oeste 35 Oeste 0 -- -- 89
2019-11-25 08:00:00 9.3 32 Oeste 43 Oeste 0 -- -- 89
2019-11-25 07:00:00 8.7 17 Oeste 34 Oeste 0 -- -- 90
2019-11-25 06:00:00 8.7 17 Oeste 31 Oeste 0 -- -- 91
2019-11-25 05:00:00 9.1 28 Oeste 51 Oeste 0.2 -- -- 90
2019-11-25 04:00:00 9.1 22 Oeste 33 Oeste 0.6 -- -- 95
2019-11-25 03:00:00 8.7 17 Oeste 26 Oeste 0.6 -- -- 97
2019-11-25 02:00:00 6.3 3 Sur 10 Oeste 1 -- -- 98
2019-11-25 01:00:00 5.7 3 Este 6 Nordeste 1.8 -- -- 96
2019-11-25 00:00:00 5.4 5 Este 8 Este 0 -- -- 96
2019-11-24 23:00:00 6 4 Oeste 12 Oeste 0.6 -- -- 95
2019-11-24 22:00:00 5.3 0 Calma 8 Oeste 0.4 -- -- 94
2019-11-24 21:00:00 5.3 5 Oeste 19 Oeste 0 -- -- 92
2019-11-24 20:00:00 5.4 13 Oeste 30 Oeste 0 -- -- 90
2019-11-24 19:00:00 6.3 6 Oeste 24 Oeste 0 -- -- 79
2019-11-24 18:00:00 6.7 17 Oeste 24 Oeste 0 -- -- 77
2019-11-24 17:00:00 6.9 20 Oeste 32 Oeste 0 -- -- 74
2019-11-24 16:00:00 6.9 24 Oeste 35 Oeste 0 -- -- 72
2019-11-24 15:00:00 6.4 19 Oeste 31 Oeste 0 -- -- 73
2019-11-24 14:00:00 6 20 Oeste 30 Oeste 0 -- -- 75
2019-11-24 13:00:00 4.9 19 Oeste 30 Oeste 0 -- -- 80
2019-11-24 12:00:00 4.5 13 Oeste 26 Oeste 0 -- -- 85
2019-11-24 11:00:00 4.1 17 Oeste 27 Oeste 0 -- -- 86
2019-11-24 10:00:00 3.6 14 Oeste 25 Oeste 0 -- -- 89
2019-11-24 09:00:00 3.4 17 Oeste 27 Oeste 0 -- -- 91
2019-11-24 08:00:00 3.4 19 Oeste 27 Oeste 0 -- -- 91
2019-11-24 07:00:00 3.4 16 Oeste 30 Oeste 0 -- -- 91
2019-11-24 06:00:00 3.4 18 Oeste 28 Oeste 0 -- -- 91
2019-11-24 05:00:00 3.1 18 Oeste 29 Oeste 0 -- -- 92
2019-11-24 04:00:00 3.1 13 Oeste 23 Oeste 0 -- -- 91
2019-11-24 03:00:00 3.2 9 Oeste 27 Oeste 0 -- -- 90
2019-11-24 02:00:00 2.8 18 Oeste 27 Oeste 0 -- -- 90
2019-11-24 01:00:00 3.4 23 Oeste 35 Oeste 0 -- -- 87
2019-11-24 00:00:00 4.2 27 Oeste 38 Oeste 0 -- -- 84
2019-11-23 23:00:00 4.1 17 Oeste 37 Oeste 0 -- -- 84
2019-11-23 22:00:00 4.9 27 Oeste 36 Noroeste 0 -- -- 78
2019-11-23 21:00:00 5.4 24 Oeste 40 Oeste 0 -- -- 76
2019-11-23 20:00:00 6.2 28 Oeste 41 Oeste 0 -- -- 73
2019-11-23 19:00:00 6.1 25 Oeste 36 Oeste 0 -- -- 73
2019-11-23 18:00:00 6.4 23 Oeste 45 Oeste 0 -- -- 71
2019-11-23 17:00:00 8.2 36 Oeste 55 Oeste 0 -- -- 64
2019-11-23 16:00:00 8.4 35 Oeste 55 Oeste 0 -- -- 63
2019-11-23 15:00:00 7.7 44 Oeste 66 Oeste 0 -- -- 65
2019-11-23 14:00:00 7.5 38 Oeste 62 Oeste 0 -- -- 66
2019-11-23 13:00:00 6.6 34 Oeste 69 Oeste 0 -- -- 72
2019-11-23 12:00:00 6.8 37 Oeste 62 Oeste 0 -- -- 70
2019-11-23 11:00:00 5.8 45 Oeste 64 Oeste 0 -- -- 73
2019-11-23 10:00:00 4.5 39 Oeste 61 Oeste 0 -- -- 80
2019-11-23 09:00:00 3.8 41 Oeste 67 Oeste 0 -- -- 85
2019-11-23 08:00:00 4.2 44 Oeste 68 Oeste 0 -- -- 85
2019-11-23 07:00:00 4.3 46 Oeste 65 Oeste 0 -- -- 86
2019-11-23 06:00:00 4.4 45 Oeste 64 Oeste 1.2 -- -- 89
2019-11-23 05:00:00 3.6 38 Oeste 68 Oeste 2 -- -- 91
2019-11-23 04:00:00 4.6 42 Oeste 71 Oeste 0.4 -- -- 86
2019-11-23 03:00:00 5.7 42 Oeste 63 Oeste 0 -- -- 79
2019-11-23 02:00:00 6.2 31 Oeste 48 Oeste 0 -- -- 84
2019-11-23 01:00:00 6.5 29 Oeste 46 Oeste 0 -- -- 84
2019-11-23 00:00:00 6.8 32 Oeste 52 Oeste 0 -- -- 88
2019-11-22 23:00:00 6.8 31 Sudoeste 50 Sudoeste 0.2 -- -- 85
2019-11-22 22:00:00 7 23 Sudoeste 37 Sudoeste 0 -- -- 85
2019-11-22 21:00:00 7.1 26 Oeste 49 Oeste 0 -- -- 87
2019-11-22 20:00:00 7.6 28 Oeste 41 Oeste 0.2 -- -- 88
2019-11-22 19:00:00 8.1 12 Oeste 38 Oeste 3 -- -- 92
2019-11-22 18:00:00 8.1 26 Oeste 63 Oeste 5.8 -- -- 89
2019-11-22 17:00:00 11.5 18 Sur 41 Sur 0 -- -- 72
2019-11-22 16:00:00 11.3 17 Sur 36 Sur 0.4 -- -- 78
2019-11-22 15:00:00 9 22 Sur 44 Sur 1.2 -- -- 84
2019-11-22 14:00:00 9.2 29 Sur 53 Sur 0.2 -- -- 80
2019-11-22 13:00:00 10 27 Sur 50 Sur 0 -- -- 74
2019-11-22 12:00:00 9.8 22 Sur 39 Sur 0 -- -- 76
2019-11-22 11:00:00 8.1 15 Sur 28 Sur 0.4 -- -- 81
2019-11-22 10:00:00 6.7 12 Sur 23 Sur 0.4 -- -- 86
2019-11-22 09:00:00 6.6 13 Sur 22 Sudeste 0.2 -- -- 87
2019-11-22 08:00:00 5.3 5 Sudeste 13 Sur 0 -- -- 95
2019-11-22 07:00:00 4.1 3 Este 5 Este 0 -- -- 97
2019-11-22 06:00:00 3.7 2 Este 4 Nordeste 0.4 -- -- 96
2019-11-22 05:00:00 3.1 0 Calma 4 Nordeste 0 -- -- 96
2019-11-22 04:00:00 2.9 3 Nordeste 6 Nordeste 0 -- -- 97
2019-11-22 03:00:00 2.1 0 Calma 6 Nordeste 0 -- -- 97
2019-11-22 02:00:00 1.1 2 Este 7 Nordeste 0 -- -- 97
2019-11-22 01:00:00 1.1 4 Nordeste 8 Nordeste 0 -- -- 96
2019-11-22 00:00:00 2.2 3 Este 5 Este 0 -- -- 94
2019-11-21 23:00:00 2.3 0 Calma 8 Sur 0 -- -- 93
2019-11-21 22:00:00 3.9 4 Sur 8 Sudoeste 0 -- -- 92
2019-11-21 21:00:00 4.3 4 Sudoeste 10 Sudoeste 0 -- -- 92
2019-11-21 20:00:00 4.9 3 Sudoeste 6 Oeste 0 -- -- 92
2019-11-21 19:00:00 4.6 5 Sudoeste 12 Sudoeste 0 -- -- 91
2019-11-21 18:00:00 5.9 7 Sudoeste 19 Oeste 0 -- -- 88
2019-11-21 17:00:00 6.8 6 Sudoeste 15 Sudoeste 0 -- -- 85
2019-11-21 16:00:00 7.2 12 Oeste 24 Oeste 0 -- -- 83
2019-11-21 15:00:00 6.6 13 Oeste 39 Oeste 0.2 -- -- 88
2019-11-21 14:00:00 7.8 17 Oeste 28 Oeste 0 -- -- 79
2019-11-21 13:00:00 5.4 7 Sudoeste 13 Oeste 0.6 -- -- 93
2019-11-21 12:00:00 4.6 4 Oeste 13 Oeste 1.8 -- -- 94
2019-11-21 11:00:00 4.2 3 Sur 8 Oeste 1.6 -- -- 93
2019-11-21 10:00:00 4.3 2 Oeste 4 Oeste 0.6 -- -- 90
2019-11-21 09:00:00 3.8 0 Calma 6 Sur 0 -- -- 91
2019-11-21 08:00:00 -- -- -- -- -- -- -- -- --
2019-11-21 07:00:00 -- -- -- -- -- -- -- -- --
2019-11-21 06:00:00 -- -- -- -- -- -- -- -- --
2019-11-21 05:00:00 -- -- -- -- -- -- -- -- --
2019-11-21 04:00:00 -- -- -- -- -- -- -- -- --
2019-11-21 03:00:00 -- -- -- -- -- -- -- -- --
2019-11-21 02:00:00 -- -- -- -- -- -- -- -- --
2019-11-21 01:00:00 -- -- -- -- -- -- -- -- --
2019-11-21 00:00:00 -- -- -- -- -- -- -- -- --
2019-11-20 23:00:00 -- -- -- -- -- -- -- -- --
2019-11-20 22:00:00 -- -- -- -- -- -- -- -- --
2019-11-20 21:00:00 -- -- -- -- -- -- -- -- --
2019-11-20 20:00:00 -- -- -- -- -- -- -- -- --
2019-11-20 19:00:00 4.4 6 Oeste 15 Oeste 0.8 -- -- 91
2019-11-20 18:00:00 5.1 11 Oeste 17 Oeste 0.4 -- -- 86
2019-11-20 17:00:00 6.5 8 Oeste 24 Sudoeste 0 -- -- 79
2019-11-20 16:00:00 8.2 8 Sudoeste 13 Oeste 0 -- -- 62
2019-11-20 15:00:00 9.9 3 Noroeste 10 Oeste 0 -- -- 54
2019-11-20 14:00:00 10.3 3 Noroeste 8 Nordeste 0 -- -- 57
2019-11-20 13:00:00 8.4 3 Norte 17 Este 0 -- -- 66
2019-11-20 12:00:00 6.6 14 Este 20 Este 0 -- -- 74
2019-11-20 11:00:00 5.3 12 Este 17 Este 0 -- -- 82
2019-11-20 10:00:00 2.4 8 Este 13 Este 0 -- -- 93
2019-11-20 09:00:00 -1.1 3 Este 6 Este 0 -- -- 97
2019-11-20 08:00:00 -2.4 2 Este 4 Nordeste 0 -- -- 97
2019-11-20 07:00:00 -2.5 3 Nordeste 5 Este 0 -- -- 97
2019-11-20 06:00:00 -2.8 4 Este 6 Este 0 -- -- 98
2019-11-20 05:00:00 -3.3 3 Este 5 Este 0 -- -- 98
2019-11-20 04:00:00 -3.1 3 Este 4 Este 0 -- -- 98
2019-11-20 03:00:00 -2.8 0 Calma -- -- 0 -- -- 97
2019-11-20 02:00:00 -2.5 0 Calma 6 Nordeste 0 -- -- 97
2019-11-20 01:00:00 -2.1 2 Este 5 Nordeste 0 -- -- 97
2019-11-20 00:00:00 -1.5 -- -- -- -- 0 -- -- 96
2019-11-19 23:00:00 -0.5 0 Calma 2 Sudeste 0 -- -- 95
2019-11-19 22:00:00 0.7 2 Sudeste 3 Sudeste 0 -- -- 92
2019-11-19 21:00:00 1.7 0 Calma 2 Este 0 -- -- 90
2019-11-19 20:00:00 2.6 0 Calma 12 Noroeste 0 -- -- 85
2019-11-19 19:00:00 3.9 9 Noroeste 14 Noroeste 0 -- -- 80
2019-11-19 18:00:00 4.5 9 Noroeste 17 Noroeste 0 -- -- 79
2019-11-19 17:00:00 5.9 14 Noroeste 26 Noroeste 0 -- -- 71
2019-11-19 16:00:00 6.9 16 Noroeste 26 Noroeste 0 -- -- 65
2019-11-19 15:00:00 7.4 19 Noroeste 26 Noroeste 0 -- -- 66
2019-11-19 14:00:00 8 12 Oeste 25 Oeste 0 -- -- 64
2019-11-19 13:00:00 7.4 13 Oeste 19 Oeste 0 -- -- 68
2019-11-19 12:00:00 7.5 3 Sudoeste 5 Este 0 -- -- 78
2019-11-19 11:00:00 3.1 3 Sudeste 6 Este 0 -- -- 89
2019-11-19 10:00:00 -1.4 4 Este 7 Este 0 -- -- 96
2019-11-19 09:00:00 -1.4 0 Calma 12 Oeste 0 -- -- 97
2019-11-19 08:00:00 -0.7 6 Oeste 13 Noroeste 0 -- -- 97
2019-11-19 07:00:00 -1.7 3 Sudoeste 6 Oeste 0 -- -- 96
2019-11-19 06:00:00 -2.9 3 Sudeste 5 Sur 0 -- -- 95
2019-11-19 05:00:00 -1.4 3 Oeste 10 Oeste 0 -- -- 97
2019-11-19 04:00:00 -0.6 11 Oeste 17 Oeste 0 -- -- 95
2019-11-19 03:00:00 -1.3 5 Oeste 10 Oeste 0 -- -- 95
2019-11-19 02:00:00 -0.7 6 Este 23 Oeste 0 -- -- 91
2019-11-19 01:00:00 0.5 19 Oeste 26 Oeste 0 -- -- 92
2019-11-19 00:00:00 0.7 14 Oeste 18 Oeste 0 -- -- 90
2019-11-18 23:00:00 0.5 17 Oeste 22 Oeste 0 -- -- 90
2019-11-18 22:00:00 1.2 19 Oeste 24 Oeste 0 -- -- 87
2019-11-18 21:00:00 1.1 14 Oeste 20 Oeste 0 -- -- 85
2019-11-18 20:00:00 1.9 15 Oeste 24 Oeste 0 -- -- 82
2019-11-18 19:00:00 3.4 14 Noroeste 23 Oeste 0 -- -- 70
2019-11-18 18:00:00 3.8 14 Oeste 33 Noroeste 0 -- -- 73
2019-11-18 17:00:00 5.7 19 Noroeste 33 Noroeste 0 -- -- 68
2019-11-18 16:00:00 6.2 19 Noroeste 34 Noroeste 0 -- -- 65
2019-11-18 15:00:00 5.9 12 Noroeste 35 Noroeste 0 -- -- 65
2019-11-18 14:00:00 6.4 23 Noroeste 40 Noroeste 0 -- -- 64
2019-11-18 13:00:00 5.9 32 Oeste 45 Oeste 0 -- -- 75
2019-11-18 12:00:00 4.5 24 Oeste 37 Oeste 0 -- -- 84
2019-11-18 11:00:00 4 27 Oeste 36 Oeste 0.2 -- -- 87
2019-11-18 10:00:00 2.9 19 Oeste 28 Oeste 0 -- -- 91
2019-11-18 09:00:00 0.5 22 Oeste 29 Oeste 0 -- -- 95
2019-11-18 08:00:00 0.3 21 Oeste 28 Noroeste 0 -- -- 95
2019-11-18 07:00:00 0.4 24 Oeste 31 Oeste 0 -- -- 95
2019-11-18 06:00:00 0.2 6 Oeste 27 Oeste 0 -- -- 95
2019-11-18 05:00:00 0.9 21 Noroeste 31 Noroeste 0 -- -- 95
2019-11-18 04:00:00 0.6 18 Oeste 28 Oeste 0 -- -- 95
2019-11-18 03:00:00 0.7 18 Oeste 31 Oeste 0 -- -- 95
2019-11-18 02:00:00 1.2 27 Oeste 36 Oeste 0 -- -- 94
2019-11-18 01:00:00 1.6 20 Oeste 27 Oeste 0 -- -- 93
2019-11-18 00:00:00 1.8 20 Oeste 28 Oeste 0 -- -- 93
2019-11-17 23:00:00 2.3 14 Oeste 26 Oeste 0 -- -- 91
2019-11-17 22:00:00 3.3 17 Oeste 31 Oeste 0 -- -- 91
2019-11-17 21:00:00 4.6 23 Oeste 33 Oeste 0 -- -- 92
2019-11-17 20:00:00 4.9 18 Oeste 24 Oeste 0 -- -- 93
2019-11-17 19:00:00 5.5 19 Oeste 33 Oeste 0.2 -- -- 89
2019-11-17 18:00:00 6.4 22 Oeste 36 Oeste 0 -- -- 94
2019-11-17 17:00:00 6.8 19 Oeste 31 Oeste 0.2 -- -- 94
2019-11-17 16:00:00 6.5 19 Oeste 38 Oeste 0.2 -- -- 95
2019-11-17 15:00:00 6.3 26 Oeste 41 Oeste 0.6 -- -- 96
2019-11-17 14:00:00 5.8 15 Oeste 28 Oeste 3 -- -- 96
2019-11-17 13:00:00 5.3 14 Oeste 28 Oeste 2.6 -- -- 95
2019-11-17 12:00:00 4.9 17 Oeste 28 Oeste 0.4 -- -- 95
2019-11-17 11:00:00 4.3 16 Oeste 30 Oeste 0.4 -- -- 93
2019-11-17 10:00:00 3.4 20 Oeste 26 Oeste 0 -- -- 93
2019-11-17 09:00:00 2.6 13 Oeste 30 Oeste 0 -- -- 92
2019-11-17 08:00:00 2.6 17 Oeste 27 Oeste 0 -- -- 89
2019-11-17 07:00:00 2.3 14 Oeste 22 Oeste 0 -- -- 90
2019-11-17 06:00:00 2 12 Oeste 15 Oeste 0 -- -- 91
2019-11-17 05:00:00 1.1 3 Noroeste 8 Oeste 0 -- -- 91
2019-11-17 04:00:00 0.7 2 Oeste 13 Oeste 0 -- -- 91
2019-11-17 03:00:00 0.5 10 Oeste 16 Oeste 0 -- -- 91
2019-11-17 02:00:00 0.2 13 Oeste 19 Oeste 0 -- -- 91
2019-11-17 01:00:00 0.6 11 Sudoeste 21 Oeste 0 -- -- 89
2019-11-17 00:00:00 2.5 15 Oeste 23 Oeste 0 -- -- 84
2019-11-16 23:00:00 2 11 Oeste 17 Oeste 0 -- -- 85
2019-11-16 22:00:00 2.4 16 Oeste 24 Oeste 0 -- -- 79
2019-11-16 21:00:00 3.6 17 Oeste 27 Oeste 0 -- -- 75
2019-11-16 20:00:00 4.2 20 Oeste 32 Oeste 0 -- -- 78
2019-11-16 19:00:00 3.8 23 Oeste 34 Oeste 0 -- -- 78
2019-11-16 18:00:00 4.5 24 Oeste 33 Oeste 0 -- -- 74
2019-11-16 17:00:00 5 22 Oeste 32 Noroeste 0 -- -- 72
2019-11-16 16:00:00 5 21 Oeste 43 Oeste 0 -- -- 73
2019-11-16 15:00:00 4.9 26 Oeste 36 Oeste 0 -- -- 71
2019-11-16 14:00:00 4.5 24 Oeste 37 Oeste 0 -- -- 74
2019-11-16 13:00:00 3.9 22 Oeste 30 Oeste 0 -- -- 81
2019-11-16 12:00:00 2.2 15 Oeste 24 Oeste 0 -- -- 91
2019-11-16 11:00:00 0.1 16 Oeste 30 Oeste 0 -- -- 94
2019-11-16 10:00:00 0.2 17 Oeste 25 Oeste 0 -- -- 94
2019-11-16 09:00:00 0 12 Oeste 27 Oeste 0 -- -- 95
2019-11-16 08:00:00 -0.1 15 Oeste 31 Oeste 0 -- -- 95
2019-11-16 07:00:00 0.1 20 Oeste 31 Oeste 0 -- -- 94
2019-11-16 06:00:00 0.1 14 Oeste 30 Oeste 0 -- -- 95
2019-11-16 05:00:00 0 8 Oeste 32 Oeste 0 -- -- 95
2019-11-16 04:00:00 0.3 18 Noroeste 31 Noroeste 0 -- -- 94
2019-11-16 03:00:00 0.5 14 Noroeste 31 Noroeste 0 -- -- 94
2019-11-16 02:00:00 0.8 21 Oeste 30 Oeste 0 -- -- 93
2019-11-16 01:00:00 0.9 17 Oeste 34 Oeste 0 -- -- 93
2019-11-16 00:00:00 1.4 23 Oeste 30 Oeste 0.2 -- -- 94
2019-11-15 23:00:00 1.2 17 Oeste 26 Oeste 0.6 -- -- 94
2019-11-15 22:00:00 1.5 14 Oeste 24 Oeste 0.4 -- -- 94
2019-11-15 21:00:00 1.2 15 Noroeste 38 Noroeste 2.6 -- -- 94
2019-11-15 20:00:00 0.4 23 Noroeste 39 Oeste 1.6 -- -- 95
2019-11-15 19:00:00 1.5 16 Oeste 31 Oeste 2 -- -- 93
2019-11-15 18:00:00 1.8 18 Noroeste 35 Oeste 1.8 -- -- 90
2019-11-15 17:00:00 4.2 14 Oeste 32 Noroeste 0.2 -- -- 75
2019-11-15 16:00:00 4.4 17 Oeste 37 Oeste 0.2 -- -- 76
2019-11-15 15:00:00 4.6 28 Oeste 44 Oeste 0 -- -- 73
2019-11-15 14:00:00 5 29 Oeste 45 Oeste 0 -- -- 75
2019-11-15 13:00:00 3.5 28 Oeste 45 Oeste 0 -- -- 86
2019-11-15 12:00:00 2.2 30 Oeste 46 Oeste 0.2 -- -- 93
2019-11-15 11:00:00 1.6 28 Oeste 47 Oeste 0 -- -- 94
2019-11-15 10:00:00 1.2 30 Oeste 46 Oeste 0 -- -- 95
2019-11-15 09:00:00 1 32 Oeste 42 Oeste 0 -- -- 96
2019-11-15 08:00:00 0.8 27 Oeste 43 Oeste 0.2 -- -- 95
2019-11-15 07:00:00 1.2 33 Oeste 47 Oeste 0.2 -- -- 95
2019-11-15 06:00:00 1.1 24 Oeste 36 Oeste 0.2 -- -- 95
2019-11-15 05:00:00 1 20 Oeste 35 Oeste 0 -- -- 94
2019-11-15 04:00:00 1.1 23 Oeste 36 Oeste 0 -- -- 93
2019-11-15 03:00:00 0.9 14 Noroeste 35 Oeste 0 -- -- 91
2019-11-15 02:00:00 1.1 21 Oeste 37 Oeste 0 -- -- 91
2019-11-15 01:00:00 1.1 23 Oeste 33 Oeste 0 -- -- 92
2019-11-15 00:00:00 1.5 19 Oeste 30 Oeste 0.6 -- -- 93